createdAt,value
2019-04-16T00:00:11.822Z,0.00
2019-04-16T00:01:08.225Z,0.00
2019-04-16T00:02:08.216Z,0.00
2019-04-16T00:03:08.203Z,0.00
2019-04-16T00:04:08.192Z,0.00
2019-04-16T00:05:08.203Z,0.00
2019-04-16T00:06:08.171Z,0.00
2019-04-16T00:07:08.203Z,0.00
2019-04-16T00:08:19.315Z,0.00
2019-04-16T00:09:09.145Z,0.00
2019-04-16T00:10:08.151Z,0.00
2019-04-16T00:11:08.153Z,0.00
2019-04-16T00:12:08.122Z,0.00
2019-04-16T00:13:08.101Z,0.00
2019-04-16T00:14:08.103Z,0.00
2019-04-16T00:15:08.098Z,0.00
2019-04-16T00:16:12.722Z,0.00
2019-04-16T00:17:09.044Z,0.00
2019-04-16T00:18:08.034Z,0.00
2019-04-16T00:19:08.033Z,0.00
2019-04-16T00:20:08.013Z,0.00
2019-04-16T00:21:10.047Z,0.00
2019-04-16T00:22:11.535Z,0.00
2019-04-16T00:23:07.981Z,0.00
2019-04-16T00:24:07.965Z,0.00
2019-04-16T00:25:07.994Z,0.00
2019-04-16T00:26:07.990Z,0.00
2019-04-16T00:27:07.936Z,0.00
2019-04-16T00:28:07.922Z,0.00
2019-04-16T00:29:07.952Z,0.00
2019-04-16T00:30:07.904Z,0.00
2019-04-16T00:31:07.915Z,0.00
2019-04-16T00:32:09.630Z,0.00
2019-04-16T00:33:10.666Z,0.00
2019-04-16T00:34:07.855Z,0.00
2019-04-16T00:35:07.907Z,0.00
2019-04-16T00:36:07.830Z,0.00
2019-04-16T00:37:07.855Z,0.00
2019-04-16T00:38:07.817Z,0.00
2019-04-16T00:39:07.817Z,0.00
2019-04-16T00:40:07.817Z,0.00
2019-04-16T00:41:07.773Z,0.00
2019-04-16T00:42:07.921Z,0.00
2019-04-16T00:43:07.889Z,0.00
2019-04-16T00:44:07.970Z,0.00
2019-04-16T00:45:07.998Z,0.00
2019-04-16T00:46:08.231Z,0.00
2019-04-16T00:47:07.747Z,0.00
2019-04-16T00:48:07.696Z,0.00
2019-04-16T00:49:07.686Z,0.00
2019-04-16T00:50:07.675Z,0.00
2019-04-16T00:51:07.730Z,0.00
2019-04-16T00:52:07.680Z,0.00
2019-04-16T00:53:08.898Z,0.00
2019-04-16T00:54:10.336Z,0.00
2019-04-16T00:55:07.627Z,0.00
2019-04-16T00:56:07.621Z,0.00
2019-04-16T00:57:07.602Z,0.00
2019-04-16T00:58:07.651Z,0.00
2019-04-16T00:59:07.577Z,0.00
2019-04-16T01:00:07.559Z,0.00
2019-04-16T01:01:07.556Z,0.00
2019-04-16T01:02:07.588Z,0.00
2019-04-16T01:03:07.531Z,0.00
2019-04-16T01:04:07.526Z,0.00
2019-04-16T01:05:07.507Z,0.00
2019-04-16T01:06:08.402Z,0.00
2019-04-16T01:07:07.515Z,0.00
2019-04-16T01:08:07.470Z,0.00
2019-04-16T01:09:07.456Z,0.00
2019-04-16T01:10:07.454Z,0.00
2019-04-16T01:11:07.436Z,0.00
2019-04-16T01:12:07.447Z,0.00
2019-04-16T01:13:07.614Z,0.00
2019-04-16T01:14:07.404Z,0.00
2019-04-16T01:15:07.394Z,0.00
2019-04-16T01:16:07.440Z,0.00
2019-04-16T01:17:07.367Z,0.00
2019-04-16T01:18:08.885Z,0.00
2019-04-16T01:19:09.975Z,0.00
2019-04-16T01:20:11.607Z,0.00
2019-04-16T01:21:08.324Z,0.00
2019-04-16T01:22:07.315Z,0.00
2019-04-16T01:23:07.331Z,0.00
2019-04-16T01:24:07.289Z,0.00
2019-04-16T01:25:07.285Z,0.00
2019-04-16T01:26:07.277Z,0.00
2019-04-16T01:27:07.261Z,0.00
2019-04-16T01:28:07.276Z,0.00
2019-04-16T01:29:07.234Z,0.00
2019-04-16T01:30:07.246Z,0.00
2019-04-16T01:31:08.308Z,0.00
2019-04-16T01:32:10.287Z,0.00
2019-04-16T01:33:07.214Z,0.00
2019-04-16T01:34:07.181Z,0.00
2019-04-16T01:35:07.804Z,0.00
2019-04-16T01:36:07.161Z,0.00
2019-04-16T01:37:07.152Z,0.00
2019-04-16T01:38:07.169Z,0.00
2019-04-16T01:39:15.593Z,0.00
2019-04-16T01:40:08.109Z,0.00
2019-04-16T01:41:07.131Z,0.00
2019-04-16T01:42:07.085Z,0.00
2019-04-16T01:43:07.100Z,0.00
2019-04-16T01:44:07.099Z,0.00
2019-04-16T01:45:07.055Z,0.00
2019-04-16T01:46:07.068Z,0.00
2019-04-16T01:47:07.038Z,0.00
2019-04-16T01:48:08.194Z,0.00
2019-04-16T01:49:09.706Z,0.00
2019-04-16T01:50:06.997Z,0.00
2019-04-16T01:51:06.996Z,0.00
2019-04-16T01:52:06.978Z,0.00
2019-04-16T01:53:06.997Z,0.00
2019-04-16T01:54:06.982Z,0.00
2019-04-16T01:55:06.945Z,0.00
2019-04-16T01:56:06.940Z,0.00
2019-04-16T01:57:06.918Z,0.00
2019-04-16T01:58:06.915Z,0.00
2019-04-16T01:59:06.923Z,0.00
2019-04-16T02:00:08.418Z,0.00
2019-04-16T02:01:08.149Z,0.00
2019-04-16T02:02:06.861Z,0.00
2019-04-16T02:03:06.858Z,0.00
2019-04-16T02:04:06.869Z,0.00
2019-04-16T02:05:06.833Z,0.00
2019-04-16T02:06:06.823Z,0.00
2019-04-16T02:07:06.806Z,0.00
2019-04-16T02:08:06.795Z,0.00
2019-04-16T02:09:06.846Z,0.00
2019-04-16T02:10:07.995Z,0.00
2019-04-16T02:11:09.837Z,0.00
2019-04-16T02:12:06.753Z,0.00
2019-04-16T02:13:06.791Z,0.00
2019-04-16T02:14:06.879Z,0.00
2019-04-16T02:15:06.822Z,0.00
2019-04-16T02:16:06.735Z,0.00
2019-04-16T02:17:06.692Z,0.00
2019-04-16T02:18:06.684Z,0.00
2019-04-16T02:19:06.697Z,0.00
2019-04-16T02:20:07.422Z,0.00
2019-04-16T02:21:09.558Z,0.00
2019-04-16T02:22:06.644Z,0.00
2019-04-16T02:23:06.626Z,0.00
2019-04-16T02:24:06.674Z,0.00
2019-04-16T02:25:06.612Z,0.00
2019-04-16T02:26:06.596Z,0.00
2019-04-16T02:27:06.582Z,0.00
2019-04-16T02:28:06.571Z,0.00
2019-04-16T02:29:06.585Z,0.00
2019-04-16T02:30:06.733Z,0.00
2019-04-16T02:31:12.841Z,0.00
2019-04-16T02:32:07.578Z,0.00
2019-04-16T02:33:06.538Z,0.00
2019-04-16T02:34:06.642Z,0.00
2019-04-16T02:35:06.623Z,0.00
2019-04-16T02:36:06.658Z,0.00
2019-04-16T02:37:06.650Z,0.00
2019-04-16T02:38:10.377Z,0.00
2019-04-16T02:39:07.503Z,0.00
2019-04-16T02:40:06.773Z,0.00
2019-04-16T02:41:06.427Z,0.00
2019-04-16T02:42:06.419Z,0.00
2019-04-16T02:43:07.675Z,0.00
2019-04-16T02:44:06.391Z,0.00
2019-04-16T02:45:06.408Z,0.00
2019-04-16T02:46:06.379Z,0.00
2019-04-16T02:47:07.811Z,0.00
2019-04-16T02:48:06.346Z,0.00
2019-04-16T02:49:06.344Z,0.00
2019-04-16T02:50:06.348Z,0.00
2019-04-16T02:51:08.237Z,0.00
2019-04-16T02:52:06.308Z,0.00
2019-04-16T02:53:06.293Z,0.00
2019-04-16T02:54:06.285Z,0.00
2019-04-16T02:55:09.146Z,0.00
2019-04-16T02:56:06.266Z,0.00
2019-04-16T02:57:06.547Z,0.00
2019-04-16T02:58:06.236Z,0.00
2019-04-16T02:59:12.201Z,0.00
2019-04-16T03:00:07.236Z,0.00
2019-04-16T03:01:06.410Z,0.00
2019-04-16T03:02:06.195Z,0.00
2019-04-16T03:03:06.184Z,0.00
2019-04-16T03:04:06.174Z,0.00
2019-04-16T03:05:06.187Z,0.00
2019-04-16T03:06:06.148Z,0.00
2019-04-16T03:07:06.173Z,0.00
2019-04-16T03:08:06.296Z,0.00
2019-04-16T03:09:09.133Z,0.00
2019-04-16T03:10:06.133Z,0.00
2019-04-16T03:11:06.115Z,0.00
2019-04-16T03:12:06.078Z,0.00
2019-04-16T03:13:06.068Z,0.00
2019-04-16T03:14:06.162Z,0.00
2019-04-16T03:15:06.046Z,0.00
2019-04-16T03:16:07.516Z,0.00
2019-04-16T03:17:09.654Z,0.00
2019-04-16T03:18:06.011Z,0.00
2019-04-16T03:19:06.003Z,0.00
2019-04-16T03:20:06.014Z,0.00
2019-04-16T03:21:06.170Z,0.00
2019-04-16T03:22:05.974Z,0.00
2019-04-16T03:23:06.795Z,0.00
2019-04-16T03:24:09.325Z,0.00
2019-04-16T03:25:05.934Z,0.00
2019-04-16T03:26:05.951Z,0.00
2019-04-16T03:27:05.954Z,0.00
2019-04-16T03:28:05.907Z,0.00
2019-04-16T03:29:05.887Z,0.00
2019-04-16T03:30:06.354Z,0.00
2019-04-16T03:31:08.749Z,0.00
2019-04-16T03:32:06.174Z,0.00
2019-04-16T03:33:12.338Z,0.00
2019-04-16T03:34:06.854Z,0.00
2019-04-16T03:35:05.821Z,0.00
2019-04-16T03:36:05.836Z,0.00
2019-04-16T03:37:05.831Z,0.00
2019-04-16T03:38:06.265Z,0.00
2019-04-16T03:39:05.775Z,0.00
2019-04-16T03:40:16.093Z,0.00
2019-04-16T03:41:06.788Z,0.00
2019-04-16T03:42:05.745Z,0.00
2019-04-16T03:43:05.771Z,0.00
2019-04-16T03:44:05.723Z,0.00
2019-04-16T03:45:09.177Z,0.00
2019-04-16T03:46:05.789Z,0.00
2019-04-16T03:47:05.897Z,0.00
2019-04-16T03:48:05.677Z,0.00
2019-04-16T03:49:05.674Z,0.00
2019-04-16T03:50:05.658Z,0.00
2019-04-16T03:51:05.649Z,0.00
2019-04-16T03:52:08.773Z,0.00
2019-04-16T03:53:05.620Z,0.00
2019-04-16T03:54:05.933Z,0.00
2019-04-16T03:55:05.778Z,0.00
2019-04-16T03:56:05.622Z,0.00
2019-04-16T03:57:05.574Z,0.00
2019-04-16T03:58:07.136Z,0.00
2019-04-16T03:59:10.786Z,0.00
2019-04-16T04:00:11.088Z,0.00
2019-04-16T04:01:06.553Z,0.00
2019-04-16T04:02:05.523Z,0.00
2019-04-16T04:03:05.510Z,0.00
2019-04-16T04:04:05.496Z,0.00
2019-04-16T04:05:06.807Z,0.00
2019-04-16T04:06:07.011Z,0.00
2019-04-16T04:07:05.605Z,0.00
2019-04-16T04:08:05.602Z,0.00
2019-04-16T04:09:05.558Z,0.00
2019-04-16T04:10:05.434Z,0.00
2019-04-16T04:11:09.067Z,0.00
2019-04-16T04:12:06.412Z,0.00
2019-04-16T04:13:05.789Z,0.00
2019-04-16T04:14:05.393Z,0.00
2019-04-16T04:15:05.373Z,0.00
2019-04-16T04:16:05.364Z,0.00
2019-04-16T04:17:06.965Z,0.00
2019-04-16T04:18:07.924Z,0.00
2019-04-16T04:19:06.341Z,0.00
2019-04-16T04:20:05.325Z,4.00
2019-04-16T04:21:05.320Z,0.00
2019-04-16T04:22:05.319Z,0.00
2019-04-16T04:23:05.309Z,0.00
2019-04-16T04:24:05.279Z,0.00
2019-04-16T04:25:05.281Z,4.00
2019-04-16T04:26:05.532Z,4.00
2019-04-16T04:27:05.278Z,0.00
2019-04-16T04:28:05.258Z,4.00
2019-04-16T04:29:06.258Z,4.00
2019-04-16T04:30:05.210Z,4.00
2019-04-16T04:31:05.200Z,0.00
2019-04-16T04:32:05.234Z,4.00
2019-04-16T04:33:08.919Z,4.00
2019-04-16T04:34:05.178Z,4.00
2019-04-16T04:35:05.161Z,4.00
2019-04-16T04:36:05.158Z,4.00
2019-04-16T04:37:05.170Z,4.00
2019-04-16T04:38:05.122Z,4.00
2019-04-16T04:39:08.998Z,8.00
2019-04-16T04:40:06.098Z,4.00
2019-04-16T04:41:05.091Z,8.00
2019-04-16T04:42:05.127Z,8.00
2019-04-16T04:43:05.068Z,8.00
2019-04-16T04:44:05.357Z,12.00
2019-04-16T04:45:08.348Z,8.00
2019-04-16T04:46:05.028Z,12.00
2019-04-16T04:47:05.062Z,12.00
2019-04-16T04:48:05.025Z,12.00
2019-04-16T04:49:04.997Z,12.00
2019-04-16T04:50:04.999Z,12.00
2019-04-16T04:51:08.009Z,12.00
2019-04-16T04:52:05.007Z,16.00
2019-04-16T04:53:04.954Z,16.00
2019-04-16T04:54:04.950Z,16.00
2019-04-16T04:55:04.930Z,16.00
2019-04-16T04:56:04.930Z,16.00
2019-04-16T04:57:04.922Z,16.00
2019-04-16T04:58:04.942Z,20.00
2019-04-16T04:59:05.315Z,16.00
2019-04-16T05:00:05.658Z,20.00
2019-04-16T05:01:04.920Z,20.00
2019-04-16T05:02:04.865Z,20.00
2019-04-16T05:03:04.900Z,20.00
2019-04-16T05:04:04.855Z,24.00
2019-04-16T05:05:04.817Z,20.00
2019-04-16T05:06:04.807Z,24.00
2019-04-16T05:07:05.018Z,24.00
2019-04-16T05:08:04.828Z,28.00
2019-04-16T05:09:04.773Z,28.00
2019-04-16T05:10:07.451Z,24.00
2019-04-16T05:11:04.749Z,28.00
2019-04-16T05:12:07.829Z,28.00
2019-04-16T05:13:04.777Z,32.00
2019-04-16T05:14:04.735Z,28.00
2019-04-16T05:15:04.708Z,32.00
2019-04-16T05:16:07.043Z,32.00
2019-04-16T05:17:06.513Z,36.00
2019-04-16T05:18:05.904Z,32.00
2019-04-16T05:19:04.715Z,36.00
2019-04-16T05:20:04.667Z,36.00
2019-04-16T05:21:04.642Z,36.00
2019-04-16T05:22:04.627Z,36.00
2019-04-16T05:23:04.627Z,36.00
2019-04-16T05:24:04.629Z,40.00
2019-04-16T05:25:04.597Z,36.00
2019-04-16T05:26:05.331Z,40.00
2019-04-16T05:27:05.528Z,40.00
2019-04-16T05:28:04.569Z,40.00
2019-04-16T05:29:04.581Z,44.00
2019-04-16T05:30:04.575Z,40.00
2019-04-16T05:31:04.527Z,44.00
2019-04-16T05:32:04.527Z,44.00
2019-04-16T05:33:05.572Z,44.00
2019-04-16T05:34:06.075Z,44.00
2019-04-16T05:35:09.175Z,44.00
2019-04-16T05:36:05.476Z,48.00
2019-04-16T05:37:04.459Z,48.00
2019-04-16T05:38:04.451Z,44.00
2019-04-16T05:39:04.461Z,48.00
2019-04-16T05:40:04.431Z,48.00
2019-04-16T05:41:13.204Z,48.00
2019-04-16T05:42:05.404Z,52.00
2019-04-16T05:43:04.392Z,52.00
2019-04-16T05:44:04.402Z,52.00
2019-04-16T05:45:05.482Z,52.00
2019-04-16T05:46:05.462Z,52.00
2019-04-16T05:47:04.355Z,56.00
2019-04-16T05:48:04.336Z,56.00
2019-04-16T05:49:04.350Z,56.00
2019-04-16T05:50:04.312Z,56.00
2019-04-16T05:51:04.299Z,60.00
2019-04-16T05:52:04.294Z,60.00
2019-04-16T05:53:05.444Z,60.00
2019-04-16T05:54:04.316Z,60.00
2019-04-16T05:55:04.265Z,60.00
2019-04-16T05:56:04.266Z,60.00
2019-04-16T05:57:04.235Z,60.00
2019-04-16T05:58:04.219Z,60.00
2019-04-16T05:59:04.242Z,64.00
2019-04-16T06:00:09.286Z,64.00
2019-04-16T06:01:05.204Z,64.00
2019-04-16T06:02:04.178Z,64.00
2019-04-16T06:03:04.164Z,68.00
2019-04-16T06:04:04.155Z,64.00
2019-04-16T06:05:04.174Z,68.00
2019-04-16T06:06:04.130Z,68.00
2019-04-16T06:07:07.595Z,72.00
2019-04-16T06:08:06.300Z,68.00
2019-04-16T06:09:04.098Z,68.00
2019-04-16T06:10:06.810Z,72.00
2019-04-16T06:11:04.074Z,72.00
2019-04-16T06:12:05.894Z,72.00
2019-04-16T06:13:04.056Z,72.00
2019-04-16T06:14:04.081Z,76.00
2019-04-16T06:15:04.041Z,76.00
2019-04-16T06:16:04.052Z,76.00
2019-04-16T06:17:04.022Z,76.00
2019-04-16T06:18:05.364Z,80.00
2019-04-16T06:19:03.994Z,80.00
2019-04-16T06:20:04.101Z,80.00
2019-04-16T06:21:03.963Z,80.00
2019-04-16T06:22:03.984Z,80.00
2019-04-16T06:23:03.952Z,84.00
2019-04-16T06:24:04.249Z,84.00
2019-04-16T06:25:08.377Z,84.00
2019-04-16T06:26:04.943Z,84.00
2019-04-16T06:27:03.899Z,88.00
2019-04-16T06:28:03.883Z,88.00
2019-04-16T06:29:03.877Z,88.00
2019-04-16T06:30:03.861Z,88.00
2019-04-16T06:31:05.658Z,88.00
2019-04-16T06:32:03.883Z,88.00
2019-04-16T06:33:03.843Z,88.00
2019-04-16T06:34:03.816Z,92.00
2019-04-16T06:35:03.817Z,92.00
2019-04-16T06:36:03.956Z,92.00
2019-04-16T06:37:03.782Z,92.00
2019-04-16T06:38:03.801Z,92.00
2019-04-16T06:39:03.768Z,92.00
2019-04-16T06:40:03.770Z,96.00
2019-04-16T06:41:04.269Z,96.00
2019-04-16T06:42:03.743Z,96.00
2019-04-16T06:43:03.715Z,96.00
2019-04-16T06:44:04.196Z,100.00
2019-04-16T06:45:04.900Z,96.00
2019-04-16T06:46:05.469Z,100.00
2019-04-16T06:47:03.683Z,96.00
2019-04-16T06:48:03.660Z,100.00
2019-04-16T06:49:03.661Z,100.00
2019-04-16T06:50:03.658Z,100.00
2019-04-16T06:51:03.651Z,104.00
2019-04-16T06:52:03.641Z,100.00
2019-04-16T06:53:03.606Z,100.00
2019-04-16T06:54:03.605Z,104.00
2019-04-16T06:55:04.337Z,104.00
2019-04-16T06:56:05.603Z,104.00
2019-04-16T06:57:03.585Z,104.00
2019-04-16T06:58:03.552Z,108.00
2019-04-16T06:59:03.548Z,104.00
2019-04-16T07:00:07.000Z,108.00
2019-04-16T07:01:06.847Z,108.00
2019-04-16T07:02:03.568Z,112.00
2019-04-16T07:03:03.504Z,112.00
2019-04-16T07:04:06.601Z,112.00
2019-04-16T07:05:03.472Z,112.00
2019-04-16T07:06:03.975Z,112.00
2019-04-16T07:07:07.859Z,112.00
2019-04-16T07:08:03.444Z,116.00
2019-04-16T07:09:03.431Z,112.00
2019-04-16T07:10:03.419Z,116.00
2019-04-16T07:11:03.404Z,120.00
2019-04-16T07:12:03.396Z,120.00
2019-04-16T07:13:03.417Z,120.00
2019-04-16T07:14:03.370Z,120.00
2019-04-16T07:15:03.365Z,120.00
2019-04-16T07:16:03.353Z,120.00
2019-04-16T07:17:03.386Z,124.00
2019-04-16T07:18:05.488Z,120.00
2019-04-16T07:19:03.316Z,120.00
2019-04-16T07:20:04.757Z,128.00
2019-04-16T07:21:03.297Z,128.00
2019-04-16T07:22:03.291Z,128.00
2019-04-16T07:23:03.299Z,128.00
2019-04-16T07:24:03.318Z,128.00
2019-04-16T07:25:05.236Z,128.00
2019-04-16T07:26:04.295Z,128.00
2019-04-16T07:27:03.321Z,132.00
2019-04-16T07:28:03.346Z,132.00
2019-04-16T07:29:03.206Z,132.00
2019-04-16T07:30:06.933Z,132.00
2019-04-16T07:31:04.184Z,136.00
2019-04-16T07:32:03.259Z,136.00
2019-04-16T07:33:03.186Z,136.00
2019-04-16T07:34:03.149Z,136.00
2019-04-16T07:35:03.136Z,140.00
2019-04-16T07:36:03.147Z,140.00
2019-04-16T07:37:03.119Z,140.00
2019-04-16T07:38:05.596Z,140.00
2019-04-16T07:39:05.074Z,144.00
2019-04-16T07:40:08.309Z,144.00
2019-04-16T07:41:04.267Z,144.00
2019-04-16T07:42:10.312Z,144.00
2019-04-16T07:43:04.075Z,148.00
2019-04-16T07:44:07.853Z,148.00
2019-04-16T07:45:04.024Z,148.00
2019-04-16T07:46:03.022Z,152.00
2019-04-16T07:47:03.001Z,152.00
2019-04-16T07:48:06.073Z,152.00
2019-04-16T07:49:02.999Z,152.00
2019-04-16T07:50:02.971Z,156.00
2019-04-16T07:51:04.887Z,156.00
2019-04-16T07:52:06.987Z,156.00
2019-04-16T07:53:04.192Z,156.00
2019-04-16T07:54:03.277Z,156.00
2019-04-16T07:55:02.934Z,160.00
2019-04-16T07:56:02.901Z,160.00
2019-04-16T07:57:02.889Z,160.00
2019-04-16T07:58:02.878Z,160.00
2019-04-16T07:59:02.918Z,164.00
2019-04-16T08:00:08.049Z,168.00
2019-04-16T08:01:03.844Z,168.00
2019-04-16T08:02:02.832Z,168.00
2019-04-16T08:03:02.859Z,172.00
2019-04-16T08:04:03.253Z,168.00
2019-04-16T08:05:07.466Z,172.00
2019-04-16T08:06:03.780Z,172.00
2019-04-16T08:07:02.773Z,176.00
2019-04-16T08:08:02.902Z,176.00
2019-04-16T08:09:02.773Z,176.00
2019-04-16T08:10:03.312Z,176.00
2019-04-16T08:11:02.729Z,176.00
2019-04-16T08:12:02.739Z,180.00
2019-04-16T08:13:02.712Z,180.00
2019-04-16T08:14:02.805Z,184.00
2019-04-16T08:15:13.929Z,184.00
2019-04-16T08:16:04.311Z,184.00
2019-04-16T08:17:02.665Z,184.00
2019-04-16T08:18:02.807Z,184.00
2019-04-16T08:19:02.639Z,188.00
2019-04-16T08:20:02.686Z,188.00
2019-04-16T08:21:10.138Z,192.00
2019-04-16T08:22:03.701Z,192.00
2019-04-16T08:23:02.590Z,192.00
2019-04-16T08:24:02.629Z,192.00
2019-04-16T08:25:03.989Z,192.00
2019-04-16T08:26:04.722Z,196.00
2019-04-16T08:27:03.545Z,200.00
2019-04-16T08:28:02.537Z,196.00
2019-04-16T08:29:02.560Z,200.00
2019-04-16T08:30:04.041Z,200.00
2019-04-16T08:31:02.507Z,200.00
2019-04-16T08:32:02.494Z,204.00
2019-04-16T08:33:02.483Z,204.00
2019-04-16T08:34:02.478Z,204.00
2019-04-16T08:35:02.488Z,208.00
2019-04-16T08:36:02.466Z,204.00
2019-04-16T08:37:02.458Z,208.00
2019-04-16T08:38:02.426Z,208.00
2019-04-16T08:39:05.812Z,212.00
2019-04-16T08:40:02.402Z,212.00
2019-04-16T08:41:02.424Z,212.00
2019-04-16T08:42:02.377Z,216.00
2019-04-16T08:43:02.431Z,212.00
2019-04-16T08:44:03.796Z,216.00
2019-04-16T08:45:07.317Z,216.00
2019-04-16T08:46:03.333Z,220.00
2019-04-16T08:47:02.335Z,220.00
2019-04-16T08:48:02.338Z,216.00
2019-04-16T08:49:02.303Z,220.00
2019-04-16T08:50:02.325Z,220.00
2019-04-16T08:51:04.661Z,220.00
2019-04-16T08:52:02.283Z,220.00
2019-04-16T08:53:02.265Z,228.00
2019-04-16T08:54:02.254Z,228.00
2019-04-16T08:55:02.239Z,228.00
2019-04-16T08:56:02.250Z,232.00
2019-04-16T08:57:02.218Z,232.00
2019-04-16T08:58:06.035Z,232.00
2019-04-16T08:59:02.194Z,232.00
2019-04-16T09:00:02.433Z,236.00
2019-04-16T09:01:02.171Z,236.00
2019-04-16T09:02:02.158Z,240.00
2019-04-16T09:03:02.144Z,240.00
2019-04-16T09:04:03.090Z,240.00
2019-04-16T09:05:05.905Z,244.00
2019-04-16T09:06:04.459Z,240.00
2019-04-16T09:07:11.379Z,248.00
2019-04-16T09:08:12.261Z,244.00
2019-04-16T09:09:12.490Z,248.00
2019-04-16T09:10:16.273Z,248.00
2019-04-16T09:11:04.349Z,248.00
2019-04-16T09:12:02.075Z,252.00
2019-04-16T09:13:04.709Z,256.00
2019-04-16T09:14:02.021Z,256.00
2019-04-16T09:15:02.266Z,256.00
2019-04-16T09:16:02.160Z,260.00
2019-04-16T09:17:01.985Z,252.00
2019-04-16T09:18:01.977Z,260.00
2019-04-16T09:19:01.968Z,276.00
2019-04-16T09:20:05.600Z,256.00
2019-04-16T09:21:01.966Z,260.00
2019-04-16T09:22:01.935Z,264.00
2019-04-16T09:23:01.921Z,264.00
2019-04-16T09:24:08.288Z,268.00
2019-04-16T09:25:02.895Z,264.00
2019-04-16T09:26:13.015Z,264.00
2019-04-16T09:27:02.881Z,268.00
2019-04-16T09:28:02.395Z,272.00
2019-04-16T09:29:08.186Z,272.00
2019-04-16T09:30:02.836Z,272.00
2019-04-16T09:31:01.992Z,272.00
2019-04-16T09:32:01.826Z,272.00
2019-04-16T09:33:02.420Z,276.00
2019-04-16T09:34:05.294Z,272.00
2019-04-16T09:35:08.912Z,276.00
2019-04-16T09:36:02.799Z,284.00
2019-04-16T09:37:01.767Z,284.00
2019-04-16T09:38:01.747Z,284.00
2019-04-16T09:39:01.737Z,288.00
2019-04-16T09:40:15.619Z,280.00
2019-04-16T09:41:02.734Z,272.00
2019-04-16T09:42:01.734Z,292.00
2019-04-16T09:43:01.707Z,292.00
2019-04-16T09:44:01.678Z,292.00
2019-04-16T09:45:04.815Z,296.00
2019-04-16T09:46:10.131Z,296.00
2019-04-16T09:47:05.179Z,300.00
2019-04-16T09:48:03.702Z,304.00
2019-04-16T09:49:04.933Z,308.00
2019-04-16T09:50:01.622Z,312.00
2019-04-16T09:51:01.605Z,312.00
2019-04-16T09:52:03.939Z,312.00
2019-04-16T09:53:02.067Z,316.00
2019-04-16T09:54:01.566Z,316.00
2019-04-16T09:55:01.556Z,320.00
2019-04-16T09:56:01.546Z,320.00
2019-04-16T09:57:01.560Z,324.00
2019-04-16T09:58:06.083Z,324.00
2019-04-16T09:59:02.509Z,324.00
2019-04-16T10:00:01.501Z,324.00
2019-04-16T10:01:01.490Z,324.00
2019-04-16T10:02:01.510Z,328.00
2019-04-16T10:03:01.471Z,332.00
2019-04-16T10:04:01.480Z,332.00
2019-04-16T10:05:01.473Z,336.00
2019-04-16T10:06:01.440Z,336.00
2019-04-16T10:07:01.445Z,336.00
2019-04-16T10:08:01.422Z,336.00
2019-04-16T10:09:01.410Z,340.00
2019-04-16T10:10:01.389Z,340.00
2019-04-16T10:11:05.619Z,340.00
2019-04-16T10:12:01.396Z,340.00
2019-04-16T10:13:01.359Z,340.00
2019-04-16T10:14:01.349Z,340.00
2019-04-16T10:15:01.332Z,344.00
2019-04-16T10:16:01.343Z,348.00
2019-04-16T10:17:01.370Z,344.00
2019-04-16T10:18:02.331Z,348.00
2019-04-16T10:19:01.316Z,352.00
2019-04-16T10:20:01.290Z,352.00
2019-04-16T10:21:01.271Z,352.00
2019-04-16T10:22:01.279Z,352.00
2019-04-16T10:23:01.280Z,352.00
2019-04-16T10:24:01.238Z,356.00
2019-04-16T10:25:01.241Z,352.00
2019-04-16T10:26:01.212Z,352.00
2019-04-16T10:27:04.256Z,348.00
2019-04-16T10:28:01.853Z,344.00
2019-04-16T10:29:01.193Z,344.00
2019-04-16T10:30:01.196Z,344.00
2019-04-16T10:31:01.155Z,348.00
2019-04-16T10:33:02.296Z,336.00
2019-04-16T10:34:01.121Z,356.00
2019-04-16T10:35:01.124Z,360.00
2019-04-16T10:36:04.626Z,364.00
2019-04-16T10:37:01.085Z,364.00
2019-04-16T10:38:01.109Z,364.00
2019-04-16T10:39:01.077Z,364.00
2019-04-16T10:40:01.058Z,368.00
2019-04-16T10:41:01.067Z,368.00
2019-04-16T10:42:01.072Z,368.00
2019-04-16T10:43:01.062Z,368.00
2019-04-16T10:44:01.026Z,372.00
2019-04-16T10:45:01.016Z,372.00
2019-04-16T10:46:00.996Z,380.00
2019-04-16T10:47:00.973Z,376.00
2019-04-16T10:48:01.032Z,376.00
2019-04-16T10:49:00.990Z,376.00
2019-04-16T10:50:00.965Z,380.00
2019-04-16T10:51:00.929Z,380.00
2019-04-16T10:52:00.932Z,380.00
2019-04-16T10:53:00.944Z,384.00
2019-04-16T10:54:00.962Z,384.00
2019-04-16T10:55:00.907Z,388.00
2019-04-16T10:56:00.873Z,388.00
2019-04-16T10:57:00.895Z,392.00
2019-04-16T10:58:00.880Z,396.00
2019-04-16T10:59:00.866Z,396.00
2019-04-16T11:00:00.909Z,400.00
2019-04-16T11:01:00.882Z,400.00
2019-04-16T11:02:00.826Z,400.00
2019-04-16T11:03:00.793Z,408.00
2019-04-16T11:04:00.835Z,404.00
2019-04-16T11:05:02.994Z,404.00
2019-04-16T11:06:00.790Z,400.00
2019-04-16T11:07:00.760Z,408.00
2019-04-16T11:08:00.739Z,408.00
2019-04-16T11:09:00.758Z,408.00
2019-04-16T11:10:00.720Z,412.00
2019-04-16T11:11:00.710Z,408.00
2019-04-16T11:12:04.795Z,408.00
2019-04-16T11:13:00.689Z,408.00
2019-04-16T11:14:00.766Z,416.00
2019-04-16T11:15:00.728Z,416.00
2019-04-16T11:16:00.648Z,416.00
2019-04-16T11:17:00.655Z,416.00
2019-04-16T11:18:00.626Z,416.00
2019-04-16T11:19:00.634Z,412.00
2019-04-16T11:20:00.613Z,412.00
2019-04-16T11:21:00.603Z,416.00
2019-04-16T11:22:03.895Z,416.00
2019-04-16T11:23:00.594Z,416.00
2019-04-16T11:24:00.583Z,416.00
2019-04-16T11:25:00.563Z,412.00
2019-04-16T11:26:00.534Z,416.00
2019-04-16T11:27:00.524Z,416.00
2019-04-16T11:28:00.517Z,416.00
2019-04-16T11:29:00.541Z,416.00
2019-04-16T11:30:00.490Z,420.00
2019-04-16T11:31:00.496Z,420.00
2019-04-16T11:32:00.486Z,420.00
2019-04-16T11:33:00.472Z,416.00
2019-04-16T11:34:00.479Z,420.00
2019-04-16T11:35:00.491Z,420.00
2019-04-16T11:36:00.448Z,420.00
2019-04-16T11:37:00.410Z,420.00
2019-04-16T11:38:00.404Z,420.00
2019-04-16T11:39:00.446Z,420.00
2019-04-16T11:40:00.533Z,420.00
2019-04-16T11:41:00.369Z,420.00
2019-04-16T11:42:00.365Z,424.00
2019-04-16T11:43:00.383Z,420.00
2019-04-16T11:44:14.280Z,420.00
2019-04-16T11:45:01.357Z,424.00
2019-04-16T11:46:00.311Z,420.00
2019-04-16T11:47:00.299Z,420.00
2019-04-16T11:48:00.327Z,420.00
2019-04-16T11:49:00.294Z,420.00
2019-04-16T11:50:00.308Z,416.00
2019-04-16T11:51:00.274Z,428.00
2019-04-16T11:52:00.305Z,416.00
2019-04-16T11:53:00.265Z,416.00
2019-04-16T11:54:00.249Z,420.00
2019-04-16T11:55:00.849Z,420.00
2019-04-16T11:56:00.223Z,420.00
2019-04-16T11:57:00.361Z,400.00
2019-04-16T11:58:00.176Z,400.00
2019-04-16T11:59:00.172Z,400.00
2019-04-16T12:00:07.473Z,396.00
2019-04-16T12:01:01.147Z,400.00
2019-04-16T12:02:00.214Z,400.00
2019-04-16T12:03:00.119Z,384.00
2019-04-16T12:04:00.144Z,388.00
2019-04-16T12:05:00.161Z,404.00
2019-04-16T12:06:00.128Z,404.00
2019-04-16T12:07:00.083Z,404.00
2019-04-16T12:08:00.063Z,404.00
2019-04-16T12:09:00.075Z,400.00
2019-04-16T12:10:00.058Z,400.00
2019-04-16T12:11:00.201Z,404.00
2019-04-16T12:12:00.050Z,408.00
2019-04-16T12:13:03.340Z,408.00
2019-04-16T12:14:00.021Z,404.00
2019-04-16T12:14:59.996Z,404.00
2019-04-16T12:16:00.057Z,400.00
2019-04-16T12:16:59.966Z,396.00
2019-04-16T12:17:59.999Z,388.00
2019-04-16T12:18:59.944Z,404.00
2019-04-16T12:19:59.948Z,388.00
2019-04-16T12:20:59.990Z,388.00
2019-04-16T12:22:00.020Z,432.00
2019-04-16T12:22:59.942Z,428.00
2019-04-16T12:23:59.890Z,424.00
2019-04-16T12:24:59.881Z,424.00
2019-04-16T12:25:59.901Z,428.00
2019-04-16T12:26:59.918Z,424.00
2019-04-16T12:28:01.955Z,424.00
2019-04-16T12:29:00.881Z,416.00
2019-04-16T12:29:59.826Z,420.00
2019-04-16T12:30:59.874Z,416.00
2019-04-16T12:32:03.605Z,412.00
2019-04-16T12:33:00.799Z,416.00
2019-04-16T12:33:59.813Z,412.00
2019-04-16T12:34:59.767Z,416.00
2019-04-16T12:35:59.768Z,412.00
2019-04-16T12:36:59.822Z,412.00
2019-04-16T12:37:59.745Z,408.00
2019-04-16T12:38:59.737Z,408.00
2019-04-16T12:39:59.713Z,408.00
2019-04-16T12:40:59.701Z,408.00
2019-04-16T12:42:00.353Z,408.00
2019-04-16T12:42:59.705Z,408.00
2019-04-16T12:43:59.660Z,408.00
2019-04-16T12:44:59.666Z,404.00
2019-04-16T12:45:59.664Z,404.00
2019-04-16T12:46:59.649Z,404.00
2019-04-16T12:47:59.695Z,400.00
2019-04-16T12:48:59.609Z,404.00
2019-04-16T12:49:59.652Z,400.00
2019-04-16T12:50:59.602Z,396.00